sensor_id;sensor_type;location;lat;lon;timestamp;P1;durP1;ratioP1;P2;durP2;ratioP2
77876;SDS011;67251;50.844;7.978;2023-09-30T00:02:20;15.57;;;5.32;;
77876;SDS011;67251;50.844;7.978;2023-09-30T00:04:45;13.35;;;5.60;;
77876;SDS011;67251;50.844;7.978;2023-09-30T00:07:11;13.60;;;5.07;;
77876;SDS011;67251;50.844;7.978;2023-09-30T00:09:36;13.13;;;5.05;;
77876;SDS011;67251;50.844;7.978;2023-09-30T00:12:02;13.32;;;5.32;;
77876;SDS011;67251;50.844;7.978;2023-09-30T00:14:27;14.98;;;5.68;;
77876;SDS011;67251;50.844;7.978;2023-09-30T00:16:53;15.18;;;5.60;;
77876;SDS011;67251;50.844;7.978;2023-09-30T00:19:19;15.13;;;5.53;;
77876;SDS011;67251;50.844;7.978;2023-09-30T00:21:44;14.65;;;5.68;;
77876;SDS011;67251;50.844;7.978;2023-09-30T00:24:09;14.80;;;5.85;;
77876;SDS011;67251;50.844;7.978;2023-09-30T00:26:35;15.43;;;5.90;;
77876;SDS011;67251;50.844;7.978;2023-09-30T00:29:00;12.38;;;4.53;;
77876;SDS011;67251;50.844;7.978;2023-09-30T00:31:29;13.40;;;4.97;;
77876;SDS011;67251;50.844;7.978;2023-09-30T00:33:55;12.27;;;5.28;;
77876;SDS011;67251;50.844;7.978;2023-09-30T00:36:20;14.35;;;4.72;;
77876;SDS011;67251;50.844;7.978;2023-09-30T00:38:46;13.68;;;5.82;;
77876;SDS011;67251;50.844;7.978;2023-09-30T00:41:12;11.75;;;4.70;;
77876;SDS011;67251;50.844;7.978;2023-09-30T00:43:38;14.05;;;5.57;;
77876;SDS011;67251;50.844;7.978;2023-09-30T00:46:10;13.52;;;4.78;;
77876;SDS011;67251;50.844;7.978;2023-09-30T00:48:39;16.15;;;5.85;;
77876;SDS011;67251;50.844;7.978;2023-09-30T00:51:05;9.80;;;4.90;;
77876;SDS011;67251;50.844;7.978;2023-09-30T00:53:31;12.93;;;4.85;;
77876;SDS011;67251;50.844;7.978;2023-09-30T00:55:56;14.27;;;5.10;;
77876;SDS011;67251;50.844;7.978;2023-09-30T00:58:25;14.98;;;4.93;;
77876;SDS011;67251;50.844;7.978;2023-09-30T01:00:53;15.35;;;5.38;;
77876;SDS011;67251;50.844;7.978;2023-09-30T01:03:21;18.05;;;5.57;;
77876;SDS011;67251;50.844;7.978;2023-09-30T01:05:47;17.80;;;5.30;;
77876;SDS011;67251;50.844;7.978;2023-09-30T01:08:13;12.63;;;5.15;;
77876;SDS011;67251;50.844;7.978;2023-09-30T01:10:38;15.65;;;5.35;;
77876;SDS011;67251;50.844;7.978;2023-09-30T01:13:04;13.93;;;4.75;;
77876;SDS011;67251;50.844;7.978;2023-09-30T01:15:29;14.68;;;5.72;;
77876;SDS011;67251;50.844;7.978;2023-09-30T01:17:54;12.23;;;4.90;;
77876;SDS011;67251;50.844;7.978;2023-09-30T01:20:20;15.88;;;5.20;;
77876;SDS011;67251;50.844;7.978;2023-09-30T01:22:48;14.45;;;4.97;;
77876;SDS011;67251;50.844;7.978;2023-09-30T01:25:13;12.93;;;4.30;;
77876;SDS011;67251;50.844;7.978;2023-09-30T01:27:39;14.40;;;4.80;;
77876;SDS011;67251;50.844;7.978;2023-09-30T01:30:04;13.02;;;4.97;;
77876;SDS011;67251;50.844;7.978;2023-09-30T01:32:30;11.10;;;4.63;;
77876;SDS011;67251;50.844;7.978;2023-09-30T01:34:55;11.50;;;4.85;;
77876;SDS011;67251;50.844;7.978;2023-09-30T01:37:21;12.15;;;4.65;;
77876;SDS011;67251;50.844;7.978;2023-09-30T01:39:46;14.75;;;4.90;;
77876;SDS011;67251;50.844;7.978;2023-09-30T01:42:13;13.57;;;5.05;;
77876;SDS011;67251;50.844;7.978;2023-09-30T01:47:14;13.63;;;4.47;;
77876;SDS011;67251;50.844;7.978;2023-09-30T01:49:39;14.98;;;4.50;;
77876;SDS011;67251;50.844;7.978;2023-09-30T01:52:05;14.02;;;5.20;;
77876;SDS011;67251;50.844;7.978;2023-09-30T01:54:30;14.20;;;4.93;;
77876;SDS011;67251;50.844;7.978;2023-09-30T01:56:55;12.20;;;4.45;;
77876;SDS011;67251;50.844;7.978;2023-09-30T01:59:21;10.95;;;4.85;;
77876;SDS011;67251;50.844;7.978;2023-09-30T02:01:46;11.60;;;5.00;;
77876;SDS011;67251;50.844;7.978;2023-09-30T02:04:13;14.70;;;5.45;;
77876;SDS011;67251;50.844;7.978;2023-09-30T02:06:40;12.63;;;5.68;;
77876;SDS011;67251;50.844;7.978;2023-09-30T02:09:09;12.77;;;4.88;;
77876;SDS011;67251;50.844;7.978;2023-09-30T02:11:37;11.80;;;4.90;;
77876;SDS011;67251;50.844;7.978;2023-09-30T02:14:02;11.82;;;4.40;;
77876;SDS011;67251;50.844;7.978;2023-09-30T02:16:28;13.00;;;4.65;;
77876;SDS011;67251;50.844;7.978;2023-09-30T02:18:53;13.13;;;4.88;;
77876;SDS011;67251;50.844;7.978;2023-09-30T02:21:19;14.07;;;5.20;;
77876;SDS011;67251;50.844;7.978;2023-09-30T02:23:47;15.80;;;4.50;;
77876;SDS011;67251;50.844;7.978;2023-09-30T02:26:16;14.15;;;5.32;;
77876;SDS011;67251;50.844;7.978;2023-09-30T02:28:42;17.63;;;4.88;;
77876;SDS011;67251;50.844;7.978;2023-09-30T02:31:07;12.85;;;4.78;;
77876;SDS011;67251;50.844;7.978;2023-09-30T02:33:33;12.73;;;5.30;;
77876;SDS011;67251;50.844;7.978;2023-09-30T02:36:02;13.25;;;4.85;;
77876;SDS011;67251;50.844;7.978;2023-09-30T02:38:31;11.88;;;4.88;;
77876;SDS011;67251;50.844;7.978;2023-09-30T02:40:56;12.57;;;4.90;;
77876;SDS011;67251;50.844;7.978;2023-09-30T02:43:22;15.85;;;4.63;;
77876;SDS011;67251;50.844;7.978;2023-09-30T02:45:47;12.52;;;5.10;;
77876;SDS011;67251;50.844;7.978;2023-09-30T02:48:13;12.63;;;4.90;;
77876;SDS011;67251;50.844;7.978;2023-09-30T02:50:38;16.15;;;4.93;;
77876;SDS011;67251;50.844;7.978;2023-09-30T02:53:06;13.52;;;4.85;;
77876;SDS011;67251;50.844;7.978;2023-09-30T02:55:32;14.80;;;5.15;;
77876;SDS011;67251;50.844;7.978;2023-09-30T02:57:57;17.98;;;5.00;;
77876;SDS011;67251;50.844;7.978;2023-09-30T03:00:23;14.10;;;5.10;;
77876;SDS011;67251;50.844;7.978;2023-09-30T03:02:50;12.90;;;4.57;;
77876;SDS011;67251;50.844;7.978;2023-09-30T03:05:16;11.80;;;5.00;;
77876;SDS011;67251;50.844;7.978;2023-09-30T03:07:42;15.82;;;5.45;;
77876;SDS011;67251;50.844;7.978;2023-09-30T03:10:07;13.05;;;5.35;;
77876;SDS011;67251;50.844;7.978;2023-09-30T03:12:34;15.27;;;5.07;;
77876;SDS011;67251;50.844;7.978;2023-09-30T03:14:59;14.10;;;5.07;;
77876;SDS011;67251;50.844;7.978;2023-09-30T03:17:29;11.48;;;4.70;;
77876;SDS011;67251;50.844;7.978;2023-09-30T03:19:54;14.77;;;5.40;;
77876;SDS011;67251;50.844;7.978;2023-09-30T03:22:22;13.98;;;5.32;;
77876;SDS011;67251;50.844;7.978;2023-09-30T03:24:47;17.85;;;5.72;;
77876;SDS011;67251;50.844;7.978;2023-09-30T03:27:12;15.30;;;5.20;;
77876;SDS011;67251;50.844;7.978;2023-09-30T03:29:39;17.85;;;5.75;;
77876;SDS011;67251;50.844;7.978;2023-09-30T03:32:05;14.90;;;5.18;;
77876;SDS011;67251;50.844;7.978;2023-09-30T03:34:31;20.63;;;6.40;;
77876;SDS011;67251;50.844;7.978;2023-09-30T03:36:56;18.10;;;6.25;;
77876;SDS011;67251;50.844;7.978;2023-09-30T03:39:24;23.08;;;6.80;;
77876;SDS011;67251;50.844;7.978;2023-09-30T03:41:53;20.40;;;6.43;;
77876;SDS011;67251;50.844;7.978;2023-09-30T03:44:19;23.40;;;6.40;;
77876;SDS011;67251;50.844;7.978;2023-09-30T03:46:45;25.23;;;6.47;;
77876;SDS011;67251;50.844;7.978;2023-09-30T03:49:10;24.42;;;6.28;;
77876;SDS011;67251;50.844;7.978;2023-09-30T03:51:35;23.10;;;6.63;;
77876;SDS011;67251;50.844;7.978;2023-09-30T03:54:02;19.83;;;6.05;;
77876;SDS011;67251;50.844;7.978;2023-09-30T03:56:27;17.70;;;5.22;;
77876;SDS011;67251;50.844;7.978;2023-09-30T03:58:53;17.73;;;5.30;;
77876;SDS011;67251;50.844;7.978;2023-09-30T04:01:19;15.93;;;5.72;;
77876;SDS011;67251;50.844;7.978;2023-09-30T04:03:45;20.05;;;6.25;;
77876;SDS011;67251;50.844;7.978;2023-09-30T04:06:10;16.30;;;5.22;;
77876;SDS011;67251;50.844;7.978;2023-09-30T04:08:42;17.05;;;5.15;;
77876;SDS011;67251;50.844;7.978;2023-09-30T04:11:08;15.73;;;5.50;;
77876;SDS011;67251;50.844;7.978;2023-09-30T04:13:35;22.02;;;5.53;;
77876;SDS011;67251;50.844;7.978;2023-09-30T04:16:01;19.15;;;5.60;;
77876;SDS011;67251;50.844;7.978;2023-09-30T04:18:27;12.60;;;5.00;;
77876;SDS011;67251;50.844;7.978;2023-09-30T04:20:53;15.48;;;5.68;;
77876;SDS011;67251;50.844;7.978;2023-09-30T04:23:19;17.73;;;5.57;;
77876;SDS011;67251;50.844;7.978;2023-09-30T04:25:47;23.67;;;5.70;;
77876;SDS011;67251;50.844;7.978;2023-09-30T04:28:13;20.30;;;5.47;;
77876;SDS011;67251;50.844;7.978;2023-09-30T04:30:39;15.05;;;5.53;;
77876;SDS011;67251;50.844;7.978;2023-09-30T04:33:05;18.85;;;5.97;;
77876;SDS011;67251;50.844;7.978;2023-09-30T04:35:30;24.00;;;6.13;;
77876;SDS011;67251;50.844;7.978;2023-09-30T04:37:56;17.17;;;5.43;;
77876;SDS011;67251;50.844;7.978;2023-09-30T04:40:26;15.55;;;4.65;;
77876;SDS011;67251;50.844;7.978;2023-09-30T04:42:51;19.20;;;6.07;;
77876;SDS011;67251;50.844;7.978;2023-09-30T04:45:19;16.92;;;6.03;;
77876;SDS011;67251;50.844;7.978;2023-09-30T04:47:49;17.20;;;5.45;;
77876;SDS011;67251;50.844;7.978;2023-09-30T04:50:15;15.95;;;4.80;;
77876;SDS011;67251;50.844;7.978;2023-09-30T04:52:41;18.95;;;4.85;;
77876;SDS011;67251;50.844;7.978;2023-09-30T04:55:07;16.85;;;4.57;;
77876;SDS011;67251;50.844;7.978;2023-09-30T04:57:33;18.02;;;5.00;;
77876;SDS011;67251;50.844;7.978;2023-09-30T04:59:59;16.23;;;4.75;;
77876;SDS011;67251;50.844;7.978;2023-09-30T05:02:25;15.18;;;4.38;;
77876;SDS011;67251;50.844;7.978;2023-09-30T05:04:50;17.35;;;4.60;;
77876;SDS011;67251;50.844;7.978;2023-09-30T05:07:17;17.40;;;5.10;;
77876;SDS011;67251;50.844;7.978;2023-09-30T05:09:42;11.63;;;4.30;;
77876;SDS011;67251;50.844;7.978;2023-09-30T05:12:08;18.10;;;4.22;;
77876;SDS011;67251;50.844;7.978;2023-09-30T05:14:35;16.90;;;4.50;;
77876;SDS011;67251;50.844;7.978;2023-09-30T05:17:01;15.82;;;4.85;;
77876;SDS011;67251;50.844;7.978;2023-09-30T05:19:29;19.65;;;4.97;;
77876;SDS011;67251;50.844;7.978;2023-09-30T05:21:56;21.20;;;5.03;;
77876;SDS011;67251;50.844;7.978;2023-09-30T05:24:22;23.85;;;5.03;;
77876;SDS011;67251;50.844;7.978;2023-09-30T05:26:47;21.92;;;5.60;;
77876;SDS011;67251;50.844;7.978;2023-09-30T05:29:13;18.60;;;5.07;;
77876;SDS011;67251;50.844;7.978;2023-09-30T05:31:38;19.83;;;4.75;;
77876;SDS011;67251;50.844;7.978;2023-09-30T05:34:04;15.35;;;4.53;;
77876;SDS011;67251;50.844;7.978;2023-09-30T05:36:29;19.52;;;5.35;;
77876;SDS011;67251;50.844;7.978;2023-09-30T05:38:55;24.13;;;4.95;;
77876;SDS011;67251;50.844;7.978;2023-09-30T05:41:20;19.95;;;5.07;;
77876;SDS011;67251;50.844;7.978;2023-09-30T05:43:46;14.10;;;4.00;;
77876;SDS011;67251;50.844;7.978;2023-09-30T05:46:12;20.30;;;4.78;;
77876;SDS011;67251;50.844;7.978;2023-09-30T05:48:38;16.83;;;4.80;;
77876;SDS011;67251;50.844;7.978;2023-09-30T05:51:04;14.52;;;3.65;;
77876;SDS011;67251;50.844;7.978;2023-09-30T05:53:31;14.25;;;3.55;;
77876;SDS011;67251;50.844;7.978;2023-09-30T05:55:58;13.82;;;3.78;;
77876;SDS011;67251;50.844;7.978;2023-09-30T05:58:24;13.38;;;3.97;;
77876;SDS011;67251;50.844;7.978;2023-09-30T06:00:51;12.43;;;3.58;;
77876;SDS011;67251;50.844;7.978;2023-09-30T06:03:17;16.73;;;4.15;;
77876;SDS011;67251;50.844;7.978;2023-09-30T06:05:42;13.15;;;3.60;;
77876;SDS011;67251;50.844;7.978;2023-09-30T06:08:08;20.23;;;3.97;;
77876;SDS011;67251;50.844;7.978;2023-09-30T06:10:36;17.45;;;3.40;;
77876;SDS011;67251;50.844;7.978;2023-09-30T06:13:07;18.23;;;4.55;;
77876;SDS011;67251;50.844;7.978;2023-09-30T06:15:34;15.02;;;3.20;;
77876;SDS011;67251;50.844;7.978;2023-09-30T06:18:02;16.63;;;2.80;;
77876;SDS011;67251;50.844;7.978;2023-09-30T06:20:29;13.75;;;4.47;;
77876;SDS011;67251;50.844;7.978;2023-09-30T06:22:55;12.73;;;4.22;;
77876;SDS011;67251;50.844;7.978;2023-09-30T06:25:21;11.05;;;3.60;;
77876;SDS011;67251;50.844;7.978;2023-09-30T06:27:49;13.32;;;3.88;;
77876;SDS011;67251;50.844;7.978;2023-09-30T06:30:15;12.20;;;3.40;;
77876;SDS011;67251;50.844;7.978;2023-09-30T06:32:41;13.25;;;4.03;;
77876;SDS011;67251;50.844;7.978;2023-09-30T06:35:08;15.32;;;4.00;;
77876;SDS011;67251;50.844;7.978;2023-09-30T06:37:36;15.57;;;3.85;;
77876;SDS011;67251;50.844;7.978;2023-09-30T06:40:03;15.30;;;4.22;;
77876;SDS011;67251;50.844;7.978;2023-09-30T06:42:30;10.27;;;4.10;;
77876;SDS011;67251;50.844;7.978;2023-09-30T06:44:55;14.80;;;3.40;;
77876;SDS011;67251;50.844;7.978;2023-09-30T06:47:21;19.52;;;4.28;;
77876;SDS011;67251;50.844;7.978;2023-09-30T06:49:47;19.50;;;3.97;;
77876;SDS011;67251;50.844;7.978;2023-09-30T06:52:12;16.50;;;4.05;;
77876;SDS011;67251;50.844;7.978;2023-09-30T06:54:38;15.68;;;4.03;;
77876;SDS011;67251;50.844;7.978;2023-09-30T06:57:03;14.52;;;4.85;;
77876;SDS011;67251;50.844;7.978;2023-09-30T06:59:29;13.07;;;4.25;;
77876;SDS011;67251;50.844;7.978;2023-09-30T07:01:56;18.83;;;3.90;;
77876;SDS011;67251;50.844;7.978;2023-09-30T07:04:22;12.38;;;3.90;;
77876;SDS011;67251;50.844;7.978;2023-09-30T07:06:47;13.23;;;3.80;;
77876;SDS011;67251;50.844;7.978;2023-09-30T07:09:13;12.82;;;4.65;;
77876;SDS011;67251;50.844;7.978;2023-09-30T07:11:38;13.63;;;4.15;;
77876;SDS011;67251;50.844;7.978;2023-09-30T07:14:03;14.70;;;4.32;;
77876;SDS011;67251;50.844;7.978;2023-09-30T07:16:29;11.55;;;4.10;;
77876;SDS011;67251;50.844;7.978;2023-09-30T07:18:55;10.95;;;3.53;;
77876;SDS011;67251;50.844;7.978;2023-09-30T07:21:20;12.93;;;4.57;;
77876;SDS011;67251;50.844;7.978;2023-09-30T07:23:46;13.20;;;3.92;;
77876;SDS011;67251;50.844;7.978;2023-09-30T07:26:13;10.98;;;3.90;;
77876;SDS011;67251;50.844;7.978;2023-09-30T07:28:39;15.55;;;4.47;;
77876;SDS011;67251;50.844;7.978;2023-09-30T07:31:05;11.82;;;4.05;;
77876;SDS011;67251;50.844;7.978;2023-09-30T07:33:30;10.15;;;4.00;;
77876;SDS011;67251;50.844;7.978;2023-09-30T07:35:56;10.25;;;3.42;;
77876;SDS011;67251;50.844;7.978;2023-09-30T07:38:22;11.70;;;4.07;;
77876;SDS011;67251;50.844;7.978;2023-09-30T07:40:47;11.27;;;4.10;;
77876;SDS011;67251;50.844;7.978;2023-09-30T07:43:14;8.25;;;3.67;;
77876;SDS011;67251;50.844;7.978;2023-09-30T07:45:39;9.90;;;3.75;;
77876;SDS011;67251;50.844;7.978;2023-09-30T07:48:06;10.80;;;3.92;;
77876;SDS011;67251;50.844;7.978;2023-09-30T07:50:34;11.18;;;4.25;;
77876;SDS011;67251;50.844;7.978;2023-09-30T07:53:00;10.80;;;4.10;;
77876;SDS011;67251;50.844;7.978;2023-09-30T07:55:25;12.77;;;5.10;;
77876;SDS011;67251;50.844;7.978;2023-09-30T07:57:51;13.20;;;4.80;;
77876;SDS011;67251;50.844;7.978;2023-09-30T08:00:16;10.43;;;4.25;;
77876;SDS011;67251;50.844;7.978;2023-09-30T08:02:42;11.15;;;4.50;;
77876;SDS011;67251;50.844;7.978;2023-09-30T08:05:09;11.00;;;3.70;;
77876;SDS011;67251;50.844;7.978;2023-09-30T08:07:34;10.77;;;4.00;;
77876;SDS011;67251;50.844;7.978;2023-09-30T08:10:00;12.63;;;3.85;;
77876;SDS011;67251;50.844;7.978;2023-09-30T08:12:29;9.32;;;3.65;;
77876;SDS011;67251;50.844;7.978;2023-09-30T08:14:54;9.30;;;3.53;;
77876;SDS011;67251;50.844;7.978;2023-09-30T08:17:19;9.20;;;4.00;;
77876;SDS011;67251;50.844;7.978;2023-09-30T08:19:45;9.90;;;3.53;;
77876;SDS011;67251;50.844;7.978;2023-09-30T08:22:12;11.27;;;3.65;;
77876;SDS011;67251;50.844;7.978;2023-09-30T08:24:38;9.57;;;3.45;;
77876;SDS011;67251;50.844;7.978;2023-09-30T08:27:03;8.38;;;3.25;;
77876;SDS011;67251;50.844;7.978;2023-09-30T08:29:28;11.40;;;3.83;;
77876;SDS011;67251;50.844;7.978;2023-09-30T08:31:54;13.30;;;5.47;;
77876;SDS011;67251;50.844;7.978;2023-09-30T08:34:19;11.00;;;4.68;;
77876;SDS011;67251;50.844;7.978;2023-09-30T08:36:46;12.40;;;4.88;;
77876;SDS011;67251;50.844;7.978;2023-09-30T08:39:11;12.00;;;4.80;;
77876;SDS011;67251;50.844;7.978;2023-09-30T08:41:37;12.88;;;4.68;;
77876;SDS011;67251;50.844;7.978;2023-09-30T08:44:04;11.85;;;4.53;;
77876;SDS011;67251;50.844;7.978;2023-09-30T08:46:30;12.60;;;4.80;;
77876;SDS011;67251;50.844;7.978;2023-09-30T08:48:57;9.80;;;3.78;;
77876;SDS011;67251;50.844;7.978;2023-09-30T08:51:24;12.35;;;4.15;;
77876;SDS011;67251;50.844;7.978;2023-09-30T08:53:50;12.77;;;5.18;;
77876;SDS011;67251;50.844;7.978;2023-09-30T08:56:18;12.02;;;4.63;;
77876;SDS011;67251;50.844;7.978;2023-09-30T08:58:45;12.15;;;4.90;;
77876;SDS011;67251;50.844;7.978;2023-09-30T09:01:11;10.65;;;4.25;;
77876;SDS011;67251;50.844;7.978;2023-09-30T09:03:38;10.75;;;4.05;;
77876;SDS011;67251;50.844;7.978;2023-09-30T09:06:04;13.50;;;5.30;;
77876;SDS011;67251;50.844;7.978;2023-09-30T09:08:29;12.23;;;4.63;;
77876;SDS011;67251;50.844;7.978;2023-09-30T09:10:55;11.93;;;4.47;;
77876;SDS011;67251;50.844;7.978;2023-09-30T09:13:22;11.10;;;4.78;;
77876;SDS011;67251;50.844;7.978;2023-09-30T09:15:48;10.52;;;4.25;;
77876;SDS011;67251;50.844;7.978;2023-09-30T09:18:30;10.88;;;4.28;;
77876;SDS011;67251;50.844;7.978;2023-09-30T09:21:14;8.50;;;4.30;;
77876;SDS011;67251;50.844;7.978;2023-09-30T09:23:42;10.77;;;4.60;;
77876;SDS011;67251;50.844;7.978;2023-09-30T09:26:12;9.70;;;4.03;;
77876;SDS011;67251;50.844;7.978;2023-09-30T09:28:40;14.68;;;4.80;;
77876;SDS011;67251;50.844;7.978;2023-09-30T09:31:19;9.98;;;4.53;;
77876;SDS011;67251;50.844;7.978;2023-09-30T09:33:46;9.80;;;3.88;;
77876;SDS011;67251;50.844;7.978;2023-09-30T09:36:12;10.65;;;4.18;;
77876;SDS011;67251;50.844;7.978;2023-09-30T09:38:48;9.80;;;4.10;;
77876;SDS011;67251;50.844;7.978;2023-09-30T09:41:18;11.05;;;3.95;;
77876;SDS011;67251;50.844;7.978;2023-09-30T09:43:44;9.68;;;4.03;;
77876;SDS011;67251;50.844;7.978;2023-09-30T09:46:13;10.35;;;4.13;;
77876;SDS011;67251;50.844;7.978;2023-09-30T09:48:39;9.63;;;3.75;;
77876;SDS011;67251;50.844;7.978;2023-09-30T09:51:04;9.95;;;3.22;;
77876;SDS011;67251;50.844;7.978;2023-09-30T09:53:36;7.78;;;3.47;;
77876;SDS011;67251;50.844;7.978;2023-09-30T09:56:02;9.07;;;3.78;;
77876;SDS011;67251;50.844;7.978;2023-09-30T09:58:31;8.70;;;3.63;;
77876;SDS011;67251;50.844;7.978;2023-09-30T10:00:59;11.40;;;4.10;;
77876;SDS011;67251;50.844;7.978;2023-09-30T10:03:26;8.00;;;3.53;;
77876;SDS011;67251;50.844;7.978;2023-09-30T10:05:51;9.52;;;3.65;;
77876;SDS011;67251;50.844;7.978;2023-09-30T10:08:17;9.18;;;3.53;;
77876;SDS011;67251;50.844;7.978;2023-09-30T10:10:46;8.82;;;3.60;;
77876;SDS011;67251;50.844;7.978;2023-09-30T10:16:46;6.95;;;2.72;;
77876;SDS011;67251;50.844;7.978;2023-09-30T10:21:40;7.68;;;3.20;;
77876;SDS011;67251;50.844;7.978;2023-09-30T10:25:00;8.25;;;3.15;;
77876;SDS011;67251;50.844;7.978;2023-09-30T10:35:19;7.70;;;2.70;;
77876;SDS011;67251;50.844;7.978;2023-09-30T10:37:45;7.25;;;3.05;;
77876;SDS011;67251;50.844;7.978;2023-09-30T10:40:26;6.70;;;3.33;;
77876;SDS011;67251;50.844;7.978;2023-09-30T10:42:53;6.47;;;2.40;;
77876;SDS011;67251;50.844;7.978;2023-09-30T10:50:58;6.00;;;1.90;;
77876;SDS011;67251;50.844;7.978;2023-09-30T10:53:26;7.40;;;2.10;;
77876;SDS011;67251;50.844;7.978;2023-09-30T10:58:22;6.57;;;1.75;;
77876;SDS011;67251;50.844;7.978;2023-09-30T11:01:17;5.22;;;1.80;;
77876;SDS011;67251;50.844;7.978;2023-09-30T11:03:44;4.45;;;1.50;;
77876;SDS011;67251;50.844;7.978;2023-09-30T11:06:11;4.88;;;1.75;;
77876;SDS011;67251;50.844;7.978;2023-09-30T11:08:54;9.02;;;2.00;;
77876;SDS011;67251;50.844;7.978;2023-09-30T11:11:44;6.03;;;1.90;;
77876;SDS011;67251;50.844;7.978;2023-09-30T11:16:43;6.07;;;1.70;;
77876;SDS011;67251;50.844;7.978;2023-09-30T11:19:09;6.97;;;2.13;;
77876;SDS011;67251;50.844;7.978;2023-09-30T11:21:35;5.53;;;1.73;;
77876;SDS011;67251;50.844;7.978;2023-09-30T11:24:01;5.72;;;1.60;;
77876;SDS011;67251;50.844;7.978;2023-09-30T11:26:30;5.78;;;2.10;;
77876;SDS011;67251;50.844;7.978;2023-09-30T11:29:05;5.28;;;1.42;;
77876;SDS011;67251;50.844;7.978;2023-09-30T11:31:32;5.05;;;1.42;;
77876;SDS011;67251;50.844;7.978;2023-09-30T11:33:58;4.60;;;1.40;;
77876;SDS011;67251;50.844;7.978;2023-09-30T11:36:28;7.50;;;2.00;;
77876;SDS011;67251;50.844;7.978;2023-09-30T11:38:55;6.35;;;1.48;;
77876;SDS011;67251;50.844;7.978;2023-09-30T11:41:20;6.35;;;1.50;;
77876;SDS011;67251;50.844;7.978;2023-09-30T11:46:50;3.85;;;1.38;;
77876;SDS011;67251;50.844;7.978;2023-09-30T11:51:54;7.03;;;1.40;;
77876;SDS011;67251;50.844;7.978;2023-09-30T11:54:21;4.93;;;1.10;;
77876;SDS011;67251;50.844;7.978;2023-09-30T11:56:47;4.70;;;1.85;;
77876;SDS011;67251;50.844;7.978;2023-09-30T11:59:15;4.63;;;1.60;;
77876;SDS011;67251;50.844;7.978;2023-09-30T12:01:41;4.72;;;1.23;;
77876;SDS011;67251;50.844;7.978;2023-09-30T12:04:06;4.22;;;1.30;;
77876;SDS011;67251;50.844;7.978;2023-09-30T12:06:31;5.13;;;1.55;;
77876;SDS011;67251;50.844;7.978;2023-09-30T12:08:59;5.60;;;1.60;;
77876;SDS011;67251;50.844;7.978;2023-09-30T12:11:24;5.82;;;1.38;;
77876;SDS011;67251;50.844;7.978;2023-09-30T12:13:50;5.88;;;1.35;;
77876;SDS011;67251;50.844;7.978;2023-09-30T12:16:16;5.63;;;1.60;;
77876;SDS011;67251;50.844;7.978;2023-09-30T12:18:42;3.95;;;1.45;;
77876;SDS011;67251;50.844;7.978;2023-09-30T12:21:09;5.35;;;1.38;;
77876;SDS011;67251;50.844;7.978;2023-09-30T12:23:38;5.57;;;1.63;;
77876;SDS011;67251;50.844;7.978;2023-09-30T12:26:04;4.80;;;1.73;;
77876;SDS011;67251;50.844;7.978;2023-09-30T12:28:33;4.82;;;1.83;;
77876;SDS011;67251;50.844;7.978;2023-09-30T12:33:27;5.95;;;1.67;;
77876;SDS011;67251;50.844;7.978;2023-09-30T12:35:53;5.75;;;2.00;;
77876;SDS011;67251;50.844;7.978;2023-09-30T12:38:18;4.68;;;1.58;;
77876;SDS011;67251;50.844;7.978;2023-09-30T12:40:44;5.38;;;1.70;;
77876;SDS011;67251;50.844;7.978;2023-09-30T12:43:09;4.97;;;1.80;;
77876;SDS011;67251;50.844;7.978;2023-09-30T12:45:35;4.53;;;1.70;;
77876;SDS011;67251;50.844;7.978;2023-09-30T12:48:01;4.18;;;1.70;;
77876;SDS011;67251;50.844;7.978;2023-09-30T12:50:27;5.78;;;1.65;;
77876;SDS011;67251;50.844;7.978;2023-09-30T12:52:52;4.75;;;1.42;;
77876;SDS011;67251;50.844;7.978;2023-09-30T12:55:18;4.63;;;1.60;;
77876;SDS011;67251;50.844;7.978;2023-09-30T12:57:43;3.67;;;1.27;;
77876;SDS011;67251;50.844;7.978;2023-09-30T13:00:09;3.95;;;1.75;;
77876;SDS011;67251;50.844;7.978;2023-09-30T13:02:35;4.88;;;1.52;;
77876;SDS011;67251;50.844;7.978;2023-09-30T13:05:00;5.00;;;1.65;;
77876;SDS011;67251;50.844;7.978;2023-09-30T13:07:25;5.10;;;1.45;;
77876;SDS011;67251;50.844;7.978;2023-09-30T13:09:51;4.63;;;1.67;;
77876;SDS011;67251;50.844;7.978;2023-09-30T13:12:16;3.90;;;1.60;;
77876;SDS011;67251;50.844;7.978;2023-09-30T13:14:42;6.55;;;1.90;;
77876;SDS011;67251;50.844;7.978;2023-09-30T13:17:07;4.25;;;1.77;;
77876;SDS011;67251;50.844;7.978;2023-09-30T13:19:32;5.22;;;1.73;;
77876;SDS011;67251;50.844;7.978;2023-09-30T13:21:58;7.07;;;1.85;;
77876;SDS011;67251;50.844;7.978;2023-09-30T13:24:24;4.05;;;1.42;;
77876;SDS011;67251;50.844;7.978;2023-09-30T13:26:49;5.55;;;1.60;;
77876;SDS011;67251;50.844;7.978;2023-09-30T13:29:17;3.95;;;1.55;;
77876;SDS011;67251;50.844;7.978;2023-09-30T13:31:43;4.05;;;1.42;;
77876;SDS011;67251;50.844;7.978;2023-09-30T13:34:09;6.07;;;1.65;;
77876;SDS011;67251;50.844;7.978;2023-09-30T13:36:35;5.68;;;1.60;;
77876;SDS011;67251;50.844;7.978;2023-09-30T13:39:00;3.83;;;1.45;;
77876;SDS011;67251;50.844;7.978;2023-09-30T13:41:26;4.55;;;1.50;;
77876;SDS011;67251;50.844;7.978;2023-09-30T13:43:52;5.70;;;1.70;;
77876;SDS011;67251;50.844;7.978;2023-09-30T13:46:17;3.80;;;1.38;;
77876;SDS011;67251;50.844;7.978;2023-09-30T13:48:43;3.67;;;1.55;;
77876;SDS011;67251;50.844;7.978;2023-09-30T13:51:08;4.50;;;1.50;;
77876;SDS011;67251;50.844;7.978;2023-09-30T13:53:35;5.63;;;1.50;;
77876;SDS011;67251;50.844;7.978;2023-09-30T13:56:01;3.92;;;1.27;;
77876;SDS011;67251;50.844;7.978;2023-09-30T13:58:28;5.18;;;1.50;;
77876;SDS011;67251;50.844;7.978;2023-09-30T14:00:54;4.40;;;1.85;;
77876;SDS011;67251;50.844;7.978;2023-09-30T14:03:21;5.47;;;1.40;;
77876;SDS011;67251;50.844;7.978;2023-09-30T14:05:49;6.43;;;1.60;;
77876;SDS011;67251;50.844;7.978;2023-09-30T14:08:14;6.63;;;1.75;;
77876;SDS011;67251;50.844;7.978;2023-09-30T14:10:41;5.15;;;1.60;;
77876;SDS011;67251;50.844;7.978;2023-09-30T14:13:06;4.32;;;1.65;;
77876;SDS011;67251;50.844;7.978;2023-09-30T14:15:32;5.07;;;1.55;;
77876;SDS011;67251;50.844;7.978;2023-09-30T14:17:57;5.65;;;1.70;;
77876;SDS011;67251;50.844;7.978;2023-09-30T14:20:23;5.57;;;1.98;;
77876;SDS011;67251;50.844;7.978;2023-09-30T14:22:50;4.53;;;1.85;;
77876;SDS011;67251;50.844;7.978;2023-09-30T14:25:16;4.97;;;1.88;;
77876;SDS011;67251;50.844;7.978;2023-09-30T14:27:42;5.68;;;1.77;;
77876;SDS011;67251;50.844;7.978;2023-09-30T14:30:07;6.28;;;2.10;;
77876;SDS011;67251;50.844;7.978;2023-09-30T14:32:33;4.90;;;1.77;;
77876;SDS011;67251;50.844;7.978;2023-09-30T14:34:59;7.45;;;2.00;;
77876;SDS011;67251;50.844;7.978;2023-09-30T14:37:24;5.00;;;1.60;;
77876;SDS011;67251;50.844;7.978;2023-09-30T14:39:49;4.43;;;1.75;;
77876;SDS011;67251;50.844;7.978;2023-09-30T14:42:15;5.80;;;1.90;;
77876;SDS011;67251;50.844;7.978;2023-09-30T14:44:40;4.90;;;2.00;;
77876;SDS011;67251;50.844;7.978;2023-09-30T14:47:06;4.78;;;2.10;;
77876;SDS011;67251;50.844;7.978;2023-09-30T14:49:32;6.75;;;2.20;;
77876;SDS011;67251;50.844;7.978;2023-09-30T14:51:57;5.70;;;1.90;;
77876;SDS011;67251;50.844;7.978;2023-09-30T14:54:23;4.75;;;1.80;;
77876;SDS011;67251;50.844;7.978;2023-09-30T14:56:49;5.43;;;1.90;;
77876;SDS011;67251;50.844;7.978;2023-09-30T14:59:14;4.25;;;1.80;;
77876;SDS011;67251;50.844;7.978;2023-09-30T15:01:39;5.40;;;2.22;;
77876;SDS011;67251;50.844;7.978;2023-09-30T15:04:05;5.35;;;1.95;;
77876;SDS011;67251;50.844;7.978;2023-09-30T15:06:32;5.10;;;1.80;;
77876;SDS011;67251;50.844;7.978;2023-09-30T15:08:59;5.75;;;1.92;;
77876;SDS011;67251;50.844;7.978;2023-09-30T15:11:28;5.18;;;1.85;;